Hlavní strana
METAR-TAF:

METAR-TAF

Letiště :

Jyväskylä, Finsko

zeměpisná šířka: 62-24N, zeměpisná délka: 025-41E, výška: 141 m

Aktuální stav počasí

Zpráva byla vytvořena před 37 minutami, v 17:20 UTC
Severní vítr 13 kt s nárazy do 24 kt
Teplota -6°C
Vlhkost vzduchu 79%
Tlak 1002 hPa
Viditelnost 10 km a více
Zataženo ve výšce 1700 ft
slabé sněžení

METAR: EFJY 071720Z AUTO 36013G24KT 9999 -SN OVC017 M06/M09 Q1002

Čas: 19:57 (17:57 UTC)

Předpověď počasí

Zpráva byla vytvořena před 23 minutami, v 17:34 UTC
Předpověď platná od 07 v 18 UTC do 08 v 18 UTC
Severní vítr 10 kt
Viditelnost 10 km a více
Oblačno až skoro zataženo ve výšce 1500 ft
slabé sněžení
Pravděpodobnost 40% :
Dočasný
od 07 v 18 UTC do 07 v 20 UTC
Viditelnost: 6000 m
Oblačno až skoro zataženo ve výšce 1300 ft
Změna
od 08 v 15 UTC do 08 v 17 UTC
Východojihovýchodní vítr 3 kt

TAF: EFJY 071734Z 0718/0818 01010KT 9999 -SN BKN015 PROB40 TEMPO 0718/0720 6000 BKN013 BECMG 0815/0817 12003KT

Stav a předpovědi počasí z více než 4 000 letišť (zprávy METAR a TAF).

Červené a žluté tečky na mapě představují dostupné meteorologické stanice.

Když kurzor umístíte na tečku, zobrazí se název stanice.

Pak kliknutím zobrazíte stav a předpověď počasí.

Chcete-li změnit mapu, kliknutím na zelené tlačítko se znaménkem +mapu přiblížíte, kliknutím na zelené tlačítko se znaménkem – mapu oddálíte a kliknutím na zelené šipky přejdete na sousední mapy.


METAR-TAF: